Time;durP1;ratioP1;P1;durP2;ratioP2;P2;SDS_P1;SDS_P2;PMS_P1;PMS_P2;Temp;Humidity;BMP_temperature;BMP_pressure;BME280_temperature;BME280_humidity;BME280_pressure;Samples;Min_cycle;Max_cycle;Signal;HPM_P1;HPM_P2
2021/09/25 00:06:05;;;;;;;5.4;2.6;;;;;;;14.61;100;98548.37;;;;
2021/09/25 00:16:07;;;;;;;7.3;2.7;;;;;;;14.62;100;98541.8;;;;
2021/09/25 00:26:05;;;;;;;6.1;2.9;;;;;;;14.69;100;98541.25;;;;
2021/09/25 00:36:01;;;;;;;5.2;2.9;;;;;;;14.57;100;98542.81;;;;
2021/09/25 00:46:01;;;;;;;4.4;2.5;;;;;;;14.61;100;98535.58;;;;
2021/09/25 00:56:00;;;;;;;4.3;2.3;;;;;;;14.56;100;98540.42;;;;
2021/09/25 01:06:00;;;;;;;3.7;1.5;;;;;;;14.4;100;98532.14;;;;
2021/09/25 01:15:59;;;;;;;4.2;1.9;;;;;;;14.46;100;98532.71;;;;
2021/09/25 01:25:58;;;;;;;6.3;2.9;;;;;;;14.31;100;98525.16;;;;
2021/09/25 01:35:58;;;;;;;5.8;2.4;;;;;;;14.23;100;98526.81;;;;
2021/09/25 01:45:57;;;;;;;4.3;2.4;;;;;;;14.23;100;98524.1;;;;
2021/09/25 01:55:57;;;;;;;5.8;2.6;;;;;;;14.02;100;98524.13;;;;
2021/09/25 02:05:56;;;;;;;4.1;2.3;;;;;;;14.21;100;98528.28;;;;
2021/09/25 02:15:58;;;;;;;5.8;2.6;;;;;;;14.15;100;98522.28;;;;
2021/09/25 02:25:57;;;;;;;12.4;2.8;;;;;;;14.21;100;98520.95;;;;
2021/09/25 02:36:02;;;;;;;5.4;2.9;;;;;;;14.23;100;98524.1;;;;
2021/09/25 02:45:57;;;;;;;4.3;2.6;;;;;;;14.24;100;98533.03;;;;
2021/09/25 02:55:57;;;;;;;4;2.2;;;;;;;14.22;100;98538.01;;;;
2021/09/25 03:05:58;;;;;;;5.5;2.2;;;;;;;14.14;100;98534.23;;;;
2021/09/25 03:15:53;;;;;;;4.4;2.4;;;;;;;14.11;100;98537.62;;;;
2021/09/25 03:25:52;;;;;;;9.8;2.7;;;;;;;13.9;100;98531.41;;;;
2021/09/25 03:35:52;;;;;;;7.1;3.6;;;;;;;14.02;100;98545.8;;;;
2021/09/25 03:45:51;;;;;;;6.7;3.6;;;;;;;14.01;100;98549.66;;;;
2021/09/25 03:55:50;;;;;;;5.2;2.2;;;;;;;14.06;100;98548.64;;;;
2021/09/25 04:05:50;;;;;;;4.1;2.3;;;;;;;13.99;100;98548.38;;;;
2021/09/25 04:15:49;;;;;;;5.1;3;;;;;;;14.07;100;98550.23;;;;
2021/09/25 04:25:49;;;;;;;3.7;2;;;;;;;14.08;100;98568.89;;;;
2021/09/25 04:35:48;;;;;;;4.7;2.8;;;;;;;14.07;100;98572.72;;;;
2021/09/25 04:45:48;;;;;;;7.7;2.1;;;;;;;14.14;100;98580.31;;;;
2021/09/25 04:55:47;;;;;;;5.7;3.1;;;;;;;14.13;100;98577.95;;;;
2021/09/25 05:05:47;;;;;;;6.1;2.8;;;;;;;14.23;100;98594.58;;;;
2021/09/25 05:15:46;;;;;;;4.8;2;;;;;;;14.22;100;98597.64;;;;
2021/09/25 05:25:45;;;;;;;4;2.2;;;;;;;14.35;100;98605.54;;;;
2021/09/25 05:35:45;;;;;;;7.2;3;;;;;;;14.32;100;98613.51;;;;
2021/09/25 05:45:44;;;;;;;3.7;2.4;;;;;;;14.36;100;98609.84;;;;
2021/09/25 05:55:44;;;;;;;3.9;2;;;;;;;14.48;100;98606.38;;;;
2021/09/25 06:05:43;;;;;;;9.9;3.5;;;;;;;14.56;100;98610.95;;;;
2021/09/25 06:15:44;;;;;;;4.7;2.3;;;;;;;14.72;100;98614.62;;;;
2021/09/25 06:25:42;;;;;;;7.9;2.6;;;;;;;14.95;100;98631.33;;;;
2021/09/25 06:35:42;;;;;;;9.3;4;;;;;;;15.08;100;98650.03;;;;
2021/09/25 06:45:42;;;;;;;7.4;3.2;;;;;;;15.33;100;98650.09;;;;
2021/09/25 06:55:41;;;;;;;8.2;3.8;;;;;;;15.45;100;98641.94;;;;
2021/09/25 07:05:41;;;;;;;13.9;3.5;;;;;;;15.85;100;98661.14;;;;
2021/09/25 07:15:42;;;;;;;8.4;2.8;;;;;;;16.18;100;98674.59;;;;
2021/09/25 07:25:40;;;;;;;8.7;3.1;;;;;;;16.59;100;98677.83;;;;
2021/09/25 07:35:40;;;;;;;3.4;1.8;;;;;;;16.82;100;98680.83;;;;
2021/09/25 07:45:40;;;;;;;5.5;2;;;;;;;17.09;100;98696.38;;;;
2021/09/25 07:55:40;;;;;;;5.7;2.9;;;;;;;17.26;100;98694.47;;;;
2021/09/25 08:05:40;;;;;;;5.1;2.8;;;;;;;17.7;100;98696.05;;;;
2021/09/25 08:15:40;;;;;;;5.2;3;;;;;;;18.12;100;98695.52;;;;
2021/09/25 08:25:40;;;;;;;7.4;3.9;;;;;;;18.71;100;98704.27;;;;
2021/09/25 08:35:40;;;;;;;8.7;3.4;;;;;;;19.15;100;98731.33;;;;
2021/09/25 08:45:40;;;;;;;5.8;3.1;;;;;;;19.16;100;98725.48;;;;
2021/09/25 08:55:40;;;;;;;7.4;3.3;;;;;;;19.69;100;98733.93;;;;
2021/09/25 09:05:40;;;;;;;9.9;4.4;;;;;;;19.68;100;98722.2;;;;
2021/09/25 09:15:41;;;;;;;5.9;3.8;;;;;;;19.72;100;98733.2;;;;
2021/09/25 09:25:41;;;;;;;6.3;4.2;;;;;;;19.38;100;98723.96;;;;
2021/09/25 09:35:41;;;;;;;7.2;3.7;;;;;;;20.06;100;98729.51;;;;
2021/09/25 09:45:42;;;;;;;7.9;3.2;;;;;;;20.39;100;98726.13;;;;
2021/09/25 09:55:42;;;;;;;6.9;3.9;;;;;;;20.36;100;98724.13;;;;
2021/09/25 10:05:44;;;;;;;7.9;3.7;;;;;;;20.46;100;98721.55;;;;
2021/09/25 10:15:43;;;;;;;6.5;3.8;;;;;;;20.76;100;98721.56;;;;
2021/09/25 10:25:43;;;;;;;5.8;3.6;;;;;;;21.04;100;98723.88;;;;
2021/09/25 10:35:44;;;;;;;6.2;4.8;;;;;;;21.26;100;98719.47;;;;
2021/09/25 10:45:44;;;;;;;7;3.5;;;;;;;21.58;100;98724.14;;;;
2021/09/25 10:55:45;;;;;;;9.9;6.1;;;;;;;21.57;100;98722.56;;;;
2021/09/25 11:05:45;;;;;;;7.9;4.2;;;;;;;21.77;100;98725.88;;;;
2021/09/25 11:15:46;;;;;;;8.3;4.9;;;;;;;21.64;100;98724.58;;;;
2021/09/25 11:25:46;;;;;;;7.6;4.6;;;;;;;21.98;100;98706.88;;;;
2021/09/25 11:35:48;;;;;;;7.7;4.3;;;;;;;22.08;100;98708.92;;;;
2021/09/25 11:45:47;;;;;;;8.7;5.3;;;;;;;22.12;100;98700.72;;;;
2021/09/25 11:55:48;;;;;;;9.2;6.1;;;;;;;21.36;100;98689.42;;;;
2021/09/25 12:05:49;;;;;;;9.9;5.8;;;;;;;21.8;100;98694.14;;;;
2021/09/25 12:15:49;;;;;;;7.1;4.1;;;;;;;21.56;100;98704.52;;;;
2021/09/25 12:25:50;;;;;;;8.9;5.6;;;;;;;21.51;100;98707.61;;;;
2021/09/25 12:35:50;;;;;;;7.7;4.1;;;;;;;21.47;100;98698.56;;;;
2021/09/25 12:45:51;;;;;;;8.8;3.5;;;;;;;21.46;100;98698.92;;;;
2021/09/25 12:55:51;;;;;;;8.4;5.2;;;;;;;21.15;100;98693.88;;;;
2021/09/25 13:05:52;;;;;;;15.5;5.9;;;;;;;20.88;100;98688.47;;;;
2021/09/25 13:15:55;;;;;;;8;4.7;;;;;;;20.59;100;98697.47;;;;
2021/09/25 13:25:52;;;;;;;7.5;5.7;;;;;;;20.49;100;98698.11;;;;
2021/09/25 13:35:53;;;;;;;27.5;13;;;;;;;20.42;100;98698.8;;;;
2021/09/25 13:45:53;;;;;;;10.5;6.1;;;;;;;20.17;100;98700.34;;;;
2021/09/25 13:55:53;;;;;;;12.1;7.3;;;;;;;20.26;100;98700.89;;;;
2021/09/25 14:05:54;;;;;;;12.4;7.4;;;;;;;20.36;100;98705.76;;;;
2021/09/25 14:15:54;;;;;;;8.7;5.4;;;;;;;20.28;100;98714.22;;;;
2021/09/25 14:25:54;;;;;;;7.6;4.2;;;;;;;20.09;100;98710.41;;;;
2021/09/25 14:35:55;;;;;;;9.5;4.8;;;;;;;20.16;100;98723.41;;;;
2021/09/25 14:45:55;;;;;;;8.9;5.1;;;;;;;19.85;100;98712.74;;;;
2021/09/25 14:55:56;;;;;;;9.8;5.3;;;;;;;19.97;100;98721.54;;;;
2021/09/25 15:05:55;;;;;;;7.9;4.6;;;;;;;19.85;100;98735.42;;;;
2021/09/25 15:15:56;;;;;;;10.9;5.8;;;;;;;19.83;100;98732.23;;;;
2021/09/25 15:25:56;;;;;;;9.3;5.5;;;;;;;19.77;100;98735.64;;;;
2021/09/25 15:35:56;;;;;;;10.5;6.8;;;;;;;19.56;100;98734.11;;;;
2021/09/25 15:45:56;;;;;;;11.2;6.1;;;;;;;19.41;100;98756.06;;;;
2021/09/25 15:55:56;;;;;;;9.2;6.6;;;;;;;19.3;100;98755.83;;;;
2021/09/25 16:05:56;;;;;;;10.3;6.9;;;;;;;18.96;100;98756.69;;;;
2021/09/25 16:15:56;;;;;;;10.9;7.4;;;;;;;18.69;100;98754.93;;;;
2021/09/25 16:25:58;;;;;;;12.3;7.2;;;;;;;18.31;100;98761.05;;;;
2021/09/25 16:35:56;;;;;;;9.8;7.2;;;;;;;18.05;100;98765.1;;;;
2021/09/25 16:45:56;;;;;;;11.4;8.5;;;;;;;18.02;100;98773.99;;;;
2021/09/25 16:55:56;;;;;;;11.9;7.5;;;;;;;18.07;100;98795.56;;;;
2021/09/25 17:05:56;;;;;;;11.2;7;;;;;;;18.06;100;98815.8;;;;
2021/09/25 17:15:56;;;;;;;11.4;7.7;;;;;;;18.01;100;98809.81;;;;
2021/09/25 17:25:57;;;;;;;13.4;8.8;;;;;;;17.91;100;98824.73;;;;
2021/09/25 17:35:56;;;;;;;12.5;8.8;;;;;;;17.79;100;98830.27;;;;
2021/09/25 17:45:56;;;;;;;12;9.8;;;;;;;17.84;100;98832.73;;;;
2021/09/25 17:55:56;;;;;;;10.3;9.2;;;;;;;17.7;100;98845.2;;;;
2021/09/25 18:05:56;;;;;;;12.2;9.7;;;;;;;17.51;100;98843.08;;;;
2021/09/25 18:15:56;;;;;;;12.4;8.6;;;;;;;17.46;100;98848.77;;;;
2021/09/25 18:25:56;;;;;;;16.4;13.1;;;;;;;17.46;100;98859.66;;;;
2021/09/25 18:35:56;;;;;;;18.2;13.6;;;;;;;17.33;100;98871.74;;;;
2021/09/25 18:45:56;;;;;;;17.2;12.6;;;;;;;17.2;100;98876.44;;;;
2021/09/25 18:55:55;;;;;;;17;13.4;;;;;;;17.25;100;98869.97;;;;
2021/09/25 19:05:55;;;;;;;13.7;11.3;;;;;;;17.27;100;98873.13;;;;
2021/09/25 19:15:57;;;;;;;15.5;11.6;;;;;;;17.26;100;98885.16;;;;
2021/09/25 19:25:55;;;;;;;13.1;11.2;;;;;;;17.16;100;98886.42;;;;
2021/09/25 19:35:55;;;;;;;14.5;9.7;;;;;;;17.06;100;98886.9;;;;
2021/09/25 19:45:55;;;;;;;13.8;10.9;;;;;;;17.01;100;98887.92;;;;
2021/09/25 19:55:55;;;;;;;12.8;11.4;;;;;;;17.11;100;98905.75;;;;
2021/09/25 20:05:54;;;;;;;16.6;12.4;;;;;;;16.98;100;98906.87;;;;
2021/09/25 20:15:54;;;;;;;16.9;11.4;;;;;;;17;100;98902.69;;;;
2021/09/25 20:25:54;;;;;;;16.6;13.2;;;;;;;17.21;100;98920.82;;;;
2021/09/25 20:35:54;;;;;;;16;12.3;;;;;;;17.19;100;98915.7;;;;
2021/09/25 20:45:54;;;;;;;14.1;11.7;;;;;;;17.14;100;98926.84;;;;
2021/09/25 20:55:54;;;;;;;23;17;;;;;;;17.18;100;98924.23;;;;
2021/09/25 21:05:54;;;;;;;18.8;16.8;;;;;;;17.05;100;98921.5;;;;
2021/09/25 21:15:54;;;;;;;15.8;12.3;;;;;;;16.93;100;98926.17;;;;
2021/09/25 21:25:53;;;;;;;16.4;12.9;;;;;;;16.83;100;98942.96;;;;
2021/09/25 21:35:53;;;;;;;13.5;10.9;;;;;;;16.71;100;98937.5;;;;
2021/09/25 21:45:54;;;;;;;14.3;8.8;;;;;;;16.68;100;98936.25;;;;
2021/09/25 21:55:53;;;;;;;11.9;9.2;;;;;;;16.68;100;98930.81;;;;
2021/09/25 22:05:53;;;;;;;19.5;16.2;;;;;;;16.73;100;98937.97;;;;
2021/09/25 22:15:52;;;;;;;18.4;13.9;;;;;;;16.63;100;98936.45;;;;
2021/09/25 22:25:52;;;;;;;13.8;10.5;;;;;;;16.62;100;98931.38;;;;
2021/09/25 22:35:58;;;;;;;17.3;13;;;;;;;16.62;100;98921.28;;;;
2021/09/25 22:45:52;;;;;;;23.3;18.8;;;;;;;16.55;100;98921.84;;;;
2021/09/25 22:55:51;;;;;;;11;9.8;;;;;;;16.53;100;98932.23;;;;
2021/09/25 23:05:53;;;;;;;23.5;16.6;;;;;;;16.45;100;98940.5;;;;
2021/09/25 23:15:51;;;;;;;24.9;14.9;;;;;;;16.34;100;98939.34;;;;
2021/09/25 23:25:51;;;;;;;17.5;15.6;;;;;;;16.25;100;98944.05;;;;
2021/09/25 23:35:51;;;;;;;15.4;11.5;;;;;;;16.27;100;98939.09;;;;
2021/09/25 23:45:50;;;;;;;19.3;14.2;;;;;;;16.19;100;98923.66;;;;
2021/09/25 23:55:50;;;;;;;20.4;16.1;;;;;;;16.04;100;98923.16;;;;
